Terminal Aerodrome Forecast
Issued by NWS Upton, NY

Home | Current Version | Previous Version | Text Only | Print | Product List | Glossary On
Versions: 1 2 3 4 5 6 7 8 9 10 11 12 13 14 15 16 17 18 19 20 21 22 23 24 25 26 27 28
000
FTUS41 KOKX 020129 AAA
TAFISP
TAF AMD
KISP 020129Z 0201/0224 06007KT 4SM -DZ BR OVC006
     FM020300 05006KT 1SM -RADZ BR OVC004
     FM021500 08006KT 4SM BR OVC006
     FM021900 VRB06KT 6SM BR BKN015=

USA.gov is the U.S. government's official web portal to all federal, state and local government web resources and services.